Terminal Aerodrome Forecast
Issued by NWS Pittsburgh, PA

Current Version | Previous Version | Text Only | Print | Product List | Glossary Off
Versions: 1 2 3 4 5 6 7 8 9 10 11 12 13 14 15 16 17 18 19 20 21 22 23 24 25 26 27 28 29 30 31 32 33 34 35

000
FTUS41 KPBZ 261133
TAFPIT
TAF
KPIT 261133Z 2612/2718 27005KT P6SM -SHSN BKN035
     FM261600 24010KT P6SM SCT050
     FM262200 21006KT P6SM SKC
     FM271600 21008KT P6SM VCSH OVC050=

USA.gov is the U.S. government's official web portal to all federal, state and local government web resources and services.